sensor_id;sensor_type;location;lat;lon;timestamp;P1;durP1;ratioP1;P2;durP2;ratioP2
69542;SDS011;56762;49.494;11.768;2023-06-22T00:02:06;11.27;;;5.95;;
69542;SDS011;56762;49.494;11.768;2023-06-22T00:04:34;12.00;;;5.43;;
69542;SDS011;56762;49.494;11.768;2023-06-22T00:07:02;8.10;;;5.07;;
69542;SDS011;56762;49.494;11.768;2023-06-22T00:09:31;9.70;;;5.13;;
69542;SDS011;56762;49.494;11.768;2023-06-22T00:11:59;7.80;;;4.43;;
69542;SDS011;56762;49.494;11.768;2023-06-22T00:14:27;7.93;;;4.97;;
69542;SDS011;56762;49.494;11.768;2023-06-22T00:16:54;11.90;;;5.43;;
69542;SDS011;56762;49.494;11.768;2023-06-22T00:19:23;10.32;;;5.72;;
69542;SDS011;56762;49.494;11.768;2023-06-22T00:21:52;12.10;;;6.17;;
69542;SDS011;56762;49.494;11.768;2023-06-22T00:24:19;11.20;;;6.53;;
69542;SDS011;56762;49.494;11.768;2023-06-22T00:26:49;11.98;;;6.03;;
69542;SDS011;56762;49.494;11.768;2023-06-22T00:29:17;11.75;;;5.30;;
69542;SDS011;56762;49.494;11.768;2023-06-22T00:31:44;13.30;;;6.68;;
69542;SDS011;56762;49.494;11.768;2023-06-22T00:34:13;13.07;;;6.93;;
69542;SDS011;56762;49.494;11.768;2023-06-22T00:36:40;9.75;;;6.20;;
69542;SDS011;56762;49.494;11.768;2023-06-22T00:39:08;11.95;;;6.45;;
69542;SDS011;56762;49.494;11.768;2023-06-22T00:41:36;11.13;;;6.82;;
69542;SDS011;56762;49.494;11.768;2023-06-22T00:44:05;11.52;;;6.60;;
69542;SDS011;56762;49.494;11.768;2023-06-22T00:46:34;16.10;;;8.73;;
69542;SDS011;56762;49.494;11.768;2023-06-22T00:49:03;14.73;;;8.48;;
69542;SDS011;56762;49.494;11.768;2023-06-22T00:51:31;15.25;;;8.27;;
69542;SDS011;56762;49.494;11.768;2023-06-22T00:54:00;16.60;;;8.52;;
69542;SDS011;56762;49.494;11.768;2023-06-22T00:56:28;11.80;;;6.95;;
69542;SDS011;56762;49.494;11.768;2023-06-22T00:58:56;12.90;;;5.87;;
69542;SDS011;56762;49.494;11.768;2023-06-22T01:01:27;9.25;;;5.15;;
69542;SDS011;56762;49.494;11.768;2023-06-22T01:03:55;8.70;;;5.25;;
69542;SDS011;56762;49.494;11.768;2023-06-22T01:06:26;9.48;;;4.53;;
69542;SDS011;56762;49.494;11.768;2023-06-22T01:09:06;6.57;;;4.15;;
69542;SDS011;56762;49.494;11.768;2023-06-22T01:11:39;6.30;;;3.37;;
69542;SDS011;56762;49.494;11.768;2023-06-22T01:14:14;7.63;;;4.03;;
69542;SDS011;56762;49.494;11.768;2023-06-22T01:16:46;6.45;;;3.65;;
69542;SDS011;56762;49.494;11.768;2023-06-22T01:19:20;6.78;;;4.32;;
69542;SDS011;56762;49.494;11.768;2023-06-22T01:22:02;5.72;;;3.28;;
69542;SDS011;56762;49.494;11.768;2023-06-22T01:24:33;7.97;;;4.27;;
69542;SDS011;56762;49.494;11.768;2023-06-22T01:27:09;6.70;;;3.20;;
69542;SDS011;56762;49.494;11.768;2023-06-22T01:29:55;6.72;;;4.10;;
69542;SDS011;56762;49.494;11.768;2023-06-22T01:32:28;9.07;;;4.32;;
69542;SDS011;56762;49.494;11.768;2023-06-22T01:35:00;7.03;;;4.18;;
69542;SDS011;56762;49.494;11.768;2023-06-22T01:37:28;7.40;;;4.37;;
69542;SDS011;56762;49.494;11.768;2023-06-22T01:39:58;7.18;;;4.35;;
69542;SDS011;56762;49.494;11.768;2023-06-22T01:42:27;7.70;;;3.90;;
69542;SDS011;56762;49.494;11.768;2023-06-22T01:44:57;7.95;;;4.22;;
69542;SDS011;56762;49.494;11.768;2023-06-22T01:47:26;6.70;;;4.03;;
69542;SDS011;56762;49.494;11.768;2023-06-22T01:49:55;8.93;;;4.17;;
69542;SDS011;56762;49.494;11.768;2023-06-22T01:52:23;6.43;;;3.70;;
69542;SDS011;56762;49.494;11.768;2023-06-22T01:54:51;6.57;;;3.83;;
69542;SDS011;56762;49.494;11.768;2023-06-22T01:57:19;8.10;;;4.05;;
69542;SDS011;56762;49.494;11.768;2023-06-22T01:59:48;6.07;;;4.15;;
69542;SDS011;56762;49.494;11.768;2023-06-22T02:02:25;7.17;;;4.17;;
69542;SDS011;56762;49.494;11.768;2023-06-22T02:04:59;6.25;;;4.05;;
69542;SDS011;56762;49.494;11.768;2023-06-22T02:07:33;7.20;;;4.30;;
69542;SDS011;56762;49.494;11.768;2023-06-22T02:10:05;9.80;;;4.43;;
69542;SDS011;56762;49.494;11.768;2023-06-22T02:12:35;9.30;;;4.53;;
69542;SDS011;56762;49.494;11.768;2023-06-22T02:15:04;7.27;;;4.83;;
69542;SDS011;56762;49.494;11.768;2023-06-22T02:17:35;8.00;;;4.43;;
69542;SDS011;56762;49.494;11.768;2023-06-22T02:20:04;7.00;;;4.30;;
69542;SDS011;56762;49.494;11.768;2023-06-22T02:22:34;8.20;;;4.47;;
69542;SDS011;56762;49.494;11.768;2023-06-22T02:25:03;7.43;;;4.45;;
69542;SDS011;56762;49.494;11.768;2023-06-22T02:27:31;8.87;;;4.70;;
69542;SDS011;56762;49.494;11.768;2023-06-22T02:29:59;8.20;;;4.55;;
69542;SDS011;56762;49.494;11.768;2023-06-22T02:32:27;9.98;;;5.03;;
69542;SDS011;56762;49.494;11.768;2023-06-22T02:34:56;9.63;;;5.13;;
69542;SDS011;56762;49.494;11.768;2023-06-22T02:37:24;8.00;;;4.18;;
69542;SDS011;56762;49.494;11.768;2023-06-22T02:39:56;9.47;;;4.70;;
69542;SDS011;56762;49.494;11.768;2023-06-22T02:42:23;7.85;;;4.13;;
69542;SDS011;56762;49.494;11.768;2023-06-22T02:44:51;7.78;;;4.47;;
69542;SDS011;56762;49.494;11.768;2023-06-22T02:47:19;7.80;;;4.43;;
69542;SDS011;56762;49.494;11.768;2023-06-22T02:49:47;8.13;;;4.70;;
69542;SDS011;56762;49.494;11.768;2023-06-22T02:52:17;8.23;;;4.30;;
69542;SDS011;56762;49.494;11.768;2023-06-22T02:54:45;7.55;;;4.40;;
69542;SDS011;56762;49.494;11.768;2023-06-22T02:57:12;6.78;;;4.10;;
69542;SDS011;56762;49.494;11.768;2023-06-22T02:59:40;7.30;;;3.75;;
69542;SDS011;56762;49.494;11.768;2023-06-22T03:02:08;8.15;;;3.95;;
69542;SDS011;56762;49.494;11.768;2023-06-22T03:04:37;8.80;;;4.07;;
69542;SDS011;56762;49.494;11.768;2023-06-22T03:07:05;7.28;;;4.20;;
69542;SDS011;56762;49.494;11.768;2023-06-22T03:09:34;6.80;;;3.90;;
69542;SDS011;56762;49.494;11.768;2023-06-22T03:12:02;8.30;;;4.22;;
69542;SDS011;56762;49.494;11.768;2023-06-22T03:14:31;7.05;;;4.00;;
69542;SDS011;56762;49.494;11.768;2023-06-22T03:16:58;7.10;;;4.03;;
69542;SDS011;56762;49.494;11.768;2023-06-22T03:19:29;6.68;;;3.75;;
69542;SDS011;56762;49.494;11.768;2023-06-22T03:21:59;6.35;;;4.22;;
69542;SDS011;56762;49.494;11.768;2023-06-22T03:24:27;6.90;;;4.03;;
69542;SDS011;56762;49.494;11.768;2023-06-22T03:26:57;5.60;;;3.72;;
69542;SDS011;56762;49.494;11.768;2023-06-22T03:29:25;7.53;;;4.37;;
69542;SDS011;56762;49.494;11.768;2023-06-22T03:31:56;6.30;;;3.83;;
69542;SDS011;56762;49.494;11.768;2023-06-22T03:34:24;7.00;;;3.95;;
69542;SDS011;56762;49.494;11.768;2023-06-22T03:36:52;6.47;;;4.13;;
69542;SDS011;56762;49.494;11.768;2023-06-22T03:39:20;7.15;;;4.32;;
69542;SDS011;56762;49.494;11.768;2023-06-22T03:41:48;7.47;;;4.30;;
69542;SDS011;56762;49.494;11.768;2023-06-22T03:44:17;9.15;;;5.20;;
69542;SDS011;56762;49.494;11.768;2023-06-22T03:46:45;9.45;;;5.00;;
69542;SDS011;56762;49.494;11.768;2023-06-22T03:49:13;10.30;;;4.68;;
69542;SDS011;56762;49.494;11.768;2023-06-22T03:51:41;9.50;;;5.53;;
69542;SDS011;56762;49.494;11.768;2023-06-22T03:54:09;9.83;;;5.60;;
69542;SDS011;56762;49.494;11.768;2023-06-22T03:56:37;9.25;;;5.30;;
69542;SDS011;56762;49.494;11.768;2023-06-22T03:59:05;7.50;;;4.88;;
69542;SDS011;56762;49.494;11.768;2023-06-22T04:01:34;8.95;;;5.63;;
69542;SDS011;56762;49.494;11.768;2023-06-22T04:04:03;9.75;;;5.32;;
69542;SDS011;56762;49.494;11.768;2023-06-22T04:06:31;8.10;;;5.13;;
69542;SDS011;56762;49.494;11.768;2023-06-22T04:09:01;7.90;;;5.00;;
69542;SDS011;56762;49.494;11.768;2023-06-22T04:11:29;10.98;;;6.10;;
69542;SDS011;56762;49.494;11.768;2023-06-22T04:13:57;9.15;;;5.63;;
69542;SDS011;56762;49.494;11.768;2023-06-22T04:16:24;9.32;;;5.80;;
69542;SDS011;56762;49.494;11.768;2023-06-22T04:18:54;9.70;;;6.07;;
69542;SDS011;56762;49.494;11.768;2023-06-22T04:21:22;11.15;;;6.43;;
69542;SDS011;56762;49.494;11.768;2023-06-22T04:23:49;11.52;;;6.30;;
69542;SDS011;56762;49.494;11.768;2023-06-22T04:26:17;12.85;;;6.00;;
69542;SDS011;56762;49.494;11.768;2023-06-22T04:28:47;11.35;;;6.60;;
69542;SDS011;56762;49.494;11.768;2023-06-22T04:31:18;12.63;;;6.50;;
69542;SDS011;56762;49.494;11.768;2023-06-22T04:33:46;10.25;;;6.22;;
69542;SDS011;56762;49.494;11.768;2023-06-22T04:36:15;10.30;;;5.22;;
69542;SDS011;56762;49.494;11.768;2023-06-22T04:38:43;10.20;;;5.45;;
69542;SDS011;56762;49.494;11.768;2023-06-22T04:41:11;10.00;;;6.15;;
69542;SDS011;56762;49.494;11.768;2023-06-22T04:43:50;8.87;;;5.47;;
69542;SDS011;56762;49.494;11.768;2023-06-22T04:46:20;9.80;;;5.57;;
69542;SDS011;56762;49.494;11.768;2023-06-22T04:48:48;11.90;;;5.88;;
69542;SDS011;56762;49.494;11.768;2023-06-22T04:51:18;10.73;;;5.97;;
69542;SDS011;56762;49.494;11.768;2023-06-22T04:53:48;10.68;;;6.15;;
69542;SDS011;56762;49.494;11.768;2023-06-22T04:56:16;8.13;;;5.13;;
69542;SDS011;56762;49.494;11.768;2023-06-22T04:58:44;9.70;;;6.10;;
69542;SDS011;56762;49.494;11.768;2023-06-22T05:01:12;11.07;;;6.10;;
69542;SDS011;56762;49.494;11.768;2023-06-22T05:03:40;14.82;;;7.45;;
69542;SDS011;56762;49.494;11.768;2023-06-22T05:06:09;14.88;;;8.35;;
69542;SDS011;56762;49.494;11.768;2023-06-22T05:08:38;17.20;;;9.97;;
69542;SDS011;56762;49.494;11.768;2023-06-22T05:11:06;12.57;;;8.32;;
69542;SDS011;56762;49.494;11.768;2023-06-22T05:13:35;14.85;;;8.43;;
69542;SDS011;56762;49.494;11.768;2023-06-22T05:16:02;17.25;;;9.90;;
69542;SDS011;56762;49.494;11.768;2023-06-22T05:18:32;16.17;;;8.35;;
69542;SDS011;56762;49.494;11.768;2023-06-22T05:21:01;11.87;;;7.50;;
69542;SDS011;56762;49.494;11.768;2023-06-22T05:23:29;10.07;;;7.35;;
69542;SDS011;56762;49.494;11.768;2023-06-22T05:25:59;11.20;;;7.50;;
69542;SDS011;56762;49.494;11.768;2023-06-22T05:28:27;10.23;;;7.25;;
69542;SDS011;56762;49.494;11.768;2023-06-22T05:30:54;10.25;;;6.32;;
69542;SDS011;56762;49.494;11.768;2023-06-22T05:33:22;12.00;;;6.97;;
69542;SDS011;56762;49.494;11.768;2023-06-22T05:35:51;10.25;;;6.10;;
69542;SDS011;56762;49.494;11.768;2023-06-22T05:38:19;10.85;;;6.65;;
69542;SDS011;56762;49.494;11.768;2023-06-22T05:40:47;10.00;;;7.13;;
69542;SDS011;56762;49.494;11.768;2023-06-22T05:43:16;10.02;;;6.85;;
69542;SDS011;56762;49.494;11.768;2023-06-22T05:45:44;10.50;;;6.70;;
69542;SDS011;56762;49.494;11.768;2023-06-22T05:48:12;10.73;;;7.18;;
69542;SDS011;56762;49.494;11.768;2023-06-22T05:50:40;9.90;;;6.38;;
69542;SDS011;56762;49.494;11.768;2023-06-22T05:53:09;13.00;;;7.43;;
69542;SDS011;56762;49.494;11.768;2023-06-22T05:55:37;11.40;;;7.15;;
69542;SDS011;56762;49.494;11.768;2023-06-22T05:58:05;10.63;;;7.67;;
69542;SDS011;56762;49.494;11.768;2023-06-22T06:00:35;9.40;;;7.30;;
69542;SDS011;56762;49.494;11.768;2023-06-22T06:03:06;10.23;;;7.28;;
69542;SDS011;56762;49.494;11.768;2023-06-22T06:05:35;9.80;;;6.63;;
69542;SDS011;56762;49.494;11.768;2023-06-22T06:08:05;11.77;;;7.00;;
69542;SDS011;56762;49.494;11.768;2023-06-22T06:10:34;10.53;;;6.77;;
69542;SDS011;56762;49.494;11.768;2023-06-22T06:13:02;9.82;;;6.78;;
69542;SDS011;56762;49.494;11.768;2023-06-22T06:15:31;9.63;;;6.60;;
69542;SDS011;56762;49.494;11.768;2023-06-22T06:18:00;12.70;;;6.78;;
69542;SDS011;56762;49.494;11.768;2023-06-22T06:20:29;10.40;;;6.47;;
69542;SDS011;56762;49.494;11.768;2023-06-22T06:22:57;8.77;;;6.30;;
69542;SDS011;56762;49.494;11.768;2023-06-22T06:25:25;9.40;;;6.28;;
69542;SDS011;56762;49.494;11.768;2023-06-22T06:27:53;13.57;;;8.45;;
69542;SDS011;56762;49.494;11.768;2023-06-22T06:30:22;9.60;;;7.13;;
69542;SDS011;56762;49.494;11.768;2023-06-22T06:32:51;9.85;;;6.50;;
69542;SDS011;56762;49.494;11.768;2023-06-22T06:35:21;10.37;;;6.63;;
69542;SDS011;56762;49.494;11.768;2023-06-22T06:37:49;13.43;;;6.53;;
69542;SDS011;56762;49.494;11.768;2023-06-22T06:40:18;8.65;;;6.43;;
69542;SDS011;56762;49.494;11.768;2023-06-22T06:42:47;11.10;;;7.53;;
69542;SDS011;56762;49.494;11.768;2023-06-22T06:45:16;9.63;;;6.68;;
69542;SDS011;56762;49.494;11.768;2023-06-22T06:47:46;9.53;;;6.60;;
69542;SDS011;56762;49.494;11.768;2023-06-22T06:50:14;9.60;;;6.65;;
69542;SDS011;56762;49.494;11.768;2023-06-22T06:52:43;11.27;;;6.78;;
69542;SDS011;56762;49.494;11.768;2023-06-22T06:55:11;12.82;;;7.68;;
69542;SDS011;56762;49.494;11.768;2023-06-22T06:57:40;11.27;;;6.95;;
69542;SDS011;56762;49.494;11.768;2023-06-22T07:00:10;12.53;;;6.60;;
69542;SDS011;56762;49.494;11.768;2023-06-22T07:02:40;11.95;;;6.82;;
69542;SDS011;56762;49.494;11.768;2023-06-22T07:05:09;7.65;;;5.53;;
69542;SDS011;56762;49.494;11.768;2023-06-22T07:07:38;10.95;;;6.90;;
69542;SDS011;56762;49.494;11.768;2023-06-22T07:10:08;12.80;;;6.25;;
69542;SDS011;56762;49.494;11.768;2023-06-22T07:12:36;8.67;;;5.47;;
69542;SDS011;56762;49.494;11.768;2023-06-22T07:15:04;8.80;;;5.65;;
69542;SDS011;56762;49.494;11.768;2023-06-22T07:17:34;9.07;;;6.45;;
69542;SDS011;56762;49.494;11.768;2023-06-22T07:20:03;10.05;;;7.03;;
69542;SDS011;56762;49.494;11.768;2023-06-22T07:22:35;10.77;;;6.43;;
69542;SDS011;56762;49.494;11.768;2023-06-22T07:25:03;9.60;;;5.97;;
69542;SDS011;56762;49.494;11.768;2023-06-22T07:27:37;9.40;;;6.78;;
69542;SDS011;56762;49.494;11.768;2023-06-22T07:30:09;8.68;;;6.20;;
69542;SDS011;56762;49.494;11.768;2023-06-22T07:32:39;11.63;;;6.90;;
69542;SDS011;56762;49.494;11.768;2023-06-22T07:35:07;11.32;;;6.07;;
69542;SDS011;56762;49.494;11.768;2023-06-22T07:37:35;11.13;;;6.90;;
69542;SDS011;56762;49.494;11.768;2023-06-22T07:40:04;10.02;;;6.53;;
69542;SDS011;56762;49.494;11.768;2023-06-22T07:42:33;8.10;;;5.60;;
69542;SDS011;56762;49.494;11.768;2023-06-22T07:45:03;9.07;;;5.55;;
69542;SDS011;56762;49.494;11.768;2023-06-22T07:47:34;9.07;;;5.28;;
69542;SDS011;56762;49.494;11.768;2023-06-22T07:50:03;8.70;;;5.63;;
69542;SDS011;56762;49.494;11.768;2023-06-22T07:52:31;7.63;;;5.35;;
69542;SDS011;56762;49.494;11.768;2023-06-22T07:54:59;9.00;;;5.78;;
69542;SDS011;56762;49.494;11.768;2023-06-22T07:57:27;9.77;;;5.43;;
69542;SDS011;56762;49.494;11.768;2023-06-22T08:00:01;7.90;;;5.63;;
69542;SDS011;56762;49.494;11.768;2023-06-22T08:02:39;7.83;;;5.90;;
69542;SDS011;56762;49.494;11.768;2023-06-22T08:05:07;8.43;;;5.30;;
69542;SDS011;56762;49.494;11.768;2023-06-22T08:07:47;9.13;;;5.38;;
69542;SDS011;56762;49.494;11.768;2023-06-22T08:10:15;8.07;;;5.22;;
69542;SDS011;56762;49.494;11.768;2023-06-22T08:12:44;8.73;;;5.57;;
69542;SDS011;56762;49.494;11.768;2023-06-22T08:15:13;8.20;;;4.87;;
69542;SDS011;56762;49.494;11.768;2023-06-22T08:17:41;8.85;;;4.50;;
69542;SDS011;56762;49.494;11.768;2023-06-22T08:20:10;6.57;;;4.13;;
69542;SDS011;56762;49.494;11.768;2023-06-22T08:22:39;7.45;;;3.60;;
69542;SDS011;56762;49.494;11.768;2023-06-22T08:25:07;5.35;;;3.35;;
69542;SDS011;56762;49.494;11.768;2023-06-22T08:27:36;5.90;;;3.63;;
69542;SDS011;56762;49.494;11.768;2023-06-22T08:30:05;6.07;;;3.33;;
69542;SDS011;56762;49.494;11.768;2023-06-22T08:32:35;5.50;;;3.28;;
69542;SDS011;56762;49.494;11.768;2023-06-22T08:35:03;6.47;;;3.80;;
69542;SDS011;56762;49.494;11.768;2023-06-22T08:37:32;6.60;;;3.63;;
69542;SDS011;56762;49.494;11.768;2023-06-22T08:40:03;8.73;;;3.63;;
69542;SDS011;56762;49.494;11.768;2023-06-22T08:42:34;6.30;;;3.30;;
69542;SDS011;56762;49.494;11.768;2023-06-22T08:45:02;5.85;;;3.53;;
69542;SDS011;56762;49.494;11.768;2023-06-22T08:47:31;6.75;;;3.70;;
69542;SDS011;56762;49.494;11.768;2023-06-22T08:50:00;6.97;;;3.72;;
69542;SDS011;56762;49.494;11.768;2023-06-22T08:52:30;5.57;;;3.30;;
69542;SDS011;56762;49.494;11.768;2023-06-22T08:54:58;5.95;;;3.55;;
69542;SDS011;56762;49.494;11.768;2023-06-22T08:57:25;6.68;;;3.33;;
69542;SDS011;56762;49.494;11.768;2023-06-22T08:59:53;5.97;;;3.70;;
69542;SDS011;56762;49.494;11.768;2023-06-22T09:02:24;6.05;;;3.85;;
69542;SDS011;56762;49.494;11.768;2023-06-22T09:04:52;5.20;;;3.30;;
69542;SDS011;56762;49.494;11.768;2023-06-22T09:07:23;6.70;;;3.60;;
69542;SDS011;56762;49.494;11.768;2023-06-22T09:09:52;8.43;;;3.83;;
69542;SDS011;56762;49.494;11.768;2023-06-22T09:12:21;8.55;;;3.65;;
69542;SDS011;56762;49.494;11.768;2023-06-22T09:14:52;5.75;;;3.75;;
69542;SDS011;56762;49.494;11.768;2023-06-22T09:17:19;9.90;;;3.70;;
69542;SDS011;56762;49.494;11.768;2023-06-22T09:19:47;5.82;;;3.83;;
69542;SDS011;56762;49.494;11.768;2023-06-22T09:22:15;5.80;;;3.30;;
69542;SDS011;56762;49.494;11.768;2023-06-22T09:24:44;6.40;;;3.65;;
69542;SDS011;56762;49.494;11.768;2023-06-22T09:27:12;7.05;;;3.60;;
69542;SDS011;56762;49.494;11.768;2023-06-22T09:29:40;9.30;;;4.17;;
69542;SDS011;56762;49.494;11.768;2023-06-22T09:32:07;9.75;;;4.35;;
69542;SDS011;56762;49.494;11.768;2023-06-22T09:34:36;7.30;;;3.80;;
69542;SDS011;56762;49.494;11.768;2023-06-22T09:37:04;6.10;;;3.95;;
69542;SDS011;56762;49.494;11.768;2023-06-22T09:39:32;8.10;;;4.38;;
69542;SDS011;56762;49.494;11.768;2023-06-22T09:42:01;6.93;;;4.07;;
69542;SDS011;56762;49.494;11.768;2023-06-22T09:44:29;5.65;;;3.28;;
69542;SDS011;56762;49.494;11.768;2023-06-22T09:46:57;8.25;;;3.90;;
69542;SDS011;56762;49.494;11.768;2023-06-22T09:49:24;6.57;;;3.85;;
69542;SDS011;56762;49.494;11.768;2023-06-22T09:52:11;6.88;;;4.20;;
69542;SDS011;56762;49.494;11.768;2023-06-22T09:54:39;7.67;;;3.57;;
69542;SDS011;56762;49.494;11.768;2023-06-22T09:57:10;8.10;;;3.80;;
69542;SDS011;56762;49.494;11.768;2023-06-22T09:59:39;6.65;;;3.47;;
69542;SDS011;56762;49.494;11.768;2023-06-22T10:02:07;8.60;;;4.22;;
69542;SDS011;56762;49.494;11.768;2023-06-22T10:04:35;6.40;;;3.75;;
69542;SDS011;56762;49.494;11.768;2023-06-22T10:07:04;7.77;;;4.33;;
69542;SDS011;56762;49.494;11.768;2023-06-22T10:09:32;6.93;;;3.85;;
69542;SDS011;56762;49.494;11.768;2023-06-22T10:12:00;6.15;;;3.83;;
69542;SDS011;56762;49.494;11.768;2023-06-22T10:14:29;6.70;;;3.15;;
69542;SDS011;56762;49.494;11.768;2023-06-22T10:16:56;7.47;;;3.67;;
69542;SDS011;56762;49.494;11.768;2023-06-22T10:19:25;8.63;;;3.83;;
69542;SDS011;56762;49.494;11.768;2023-06-22T10:21:53;6.45;;;3.83;;
69542;SDS011;56762;49.494;11.768;2023-06-22T10:24:21;6.70;;;4.35;;
69542;SDS011;56762;49.494;11.768;2023-06-22T10:26:49;7.38;;;3.80;;
69542;SDS011;56762;49.494;11.768;2023-06-22T10:29:18;8.98;;;4.18;;
69542;SDS011;56762;49.494;11.768;2023-06-22T10:31:49;10.20;;;4.07;;
69542;SDS011;56762;49.494;11.768;2023-06-22T10:34:17;7.57;;;3.90;;
69542;SDS011;56762;49.494;11.768;2023-06-22T10:36:44;8.18;;;4.07;;
69542;SDS011;56762;49.494;11.768;2023-06-22T10:39:15;12.18;;;4.43;;
69542;SDS011;56762;49.494;11.768;2023-06-22T10:41:42;9.45;;;3.85;;
69542;SDS011;56762;49.494;11.768;2023-06-22T10:44:10;13.27;;;4.27;;
69542;SDS011;56762;49.494;11.768;2023-06-22T10:46:38;6.72;;;4.05;;
69542;SDS011;56762;49.494;11.768;2023-06-22T10:49:07;10.05;;;3.97;;
69542;SDS011;56762;49.494;11.768;2023-06-22T10:51:35;7.68;;;4.00;;
69542;SDS011;56762;49.494;11.768;2023-06-22T10:54:03;7.30;;;4.18;;
69542;SDS011;56762;49.494;11.768;2023-06-22T10:56:31;6.43;;;4.17;;
69542;SDS011;56762;49.494;11.768;2023-06-22T10:59:00;6.80;;;3.85;;
69542;SDS011;56762;49.494;11.768;2023-06-22T11:01:28;9.07;;;3.95;;
69542;SDS011;56762;49.494;11.768;2023-06-22T11:04:02;7.43;;;4.18;;
69542;SDS011;56762;49.494;11.768;2023-06-22T11:06:32;9.50;;;4.60;;
69542;SDS011;56762;49.494;11.768;2023-06-22T11:09:00;10.57;;;4.40;;
69542;SDS011;56762;49.494;11.768;2023-06-22T11:11:37;8.32;;;4.05;;
69542;SDS011;56762;49.494;11.768;2023-06-22T11:14:04;6.32;;;3.53;;
69542;SDS011;56762;49.494;11.768;2023-06-22T11:16:32;9.30;;;4.57;;
69542;SDS011;56762;49.494;11.768;2023-06-22T11:19:01;11.15;;;4.50;;
69542;SDS011;56762;49.494;11.768;2023-06-22T11:21:29;7.07;;;3.90;;
69542;SDS011;56762;49.494;11.768;2023-06-22T11:23:58;7.82;;;4.13;;
69542;SDS011;56762;49.494;11.768;2023-06-22T11:26:27;8.82;;;3.50;;
69542;SDS011;56762;49.494;11.768;2023-06-22T11:28:55;7.55;;;4.38;;
69542;SDS011;56762;49.494;11.768;2023-06-22T11:31:24;7.82;;;4.15;;
69542;SDS011;56762;49.494;11.768;2023-06-22T11:33:52;6.83;;;3.33;;
69542;SDS011;56762;49.494;11.768;2023-06-22T11:36:20;7.95;;;3.75;;
69542;SDS011;56762;49.494;11.768;2023-06-22T11:38:49;8.82;;;3.65;;
69542;SDS011;56762;49.494;11.768;2023-06-22T11:41:19;8.75;;;3.70;;
69542;SDS011;56762;49.494;11.768;2023-06-22T11:43:47;8.90;;;4.10;;
69542;SDS011;56762;49.494;11.768;2023-06-22T11:46:15;7.00;;;3.50;;
69542;SDS011;56762;49.494;11.768;2023-06-22T11:48:43;9.38;;;3.80;;
69542;SDS011;56762;49.494;11.768;2023-06-22T11:51:11;6.18;;;3.85;;
69542;SDS011;56762;49.494;11.768;2023-06-22T11:53:39;8.48;;;3.83;;
69542;SDS011;56762;49.494;11.768;2023-06-22T11:56:07;7.50;;;4.03;;
69542;SDS011;56762;49.494;11.768;2023-06-22T11:58:37;8.23;;;3.87;;
69542;SDS011;56762;49.494;11.768;2023-06-22T12:01:05;6.10;;;3.25;;
69542;SDS011;56762;49.494;11.768;2023-06-22T12:03:33;8.15;;;3.50;;
69542;SDS011;56762;49.494;11.768;2023-06-22T12:06:00;7.25;;;3.60;;
69542;SDS011;56762;49.494;11.768;2023-06-22T12:08:28;7.85;;;3.95;;
69542;SDS011;56762;49.494;11.768;2023-06-22T12:10:56;7.97;;;3.40;;
69542;SDS011;56762;49.494;11.768;2023-06-22T12:13:24;9.30;;;3.38;;
69542;SDS011;56762;49.494;11.768;2023-06-22T12:15:54;9.75;;;3.65;;
69542;SDS011;56762;49.494;11.768;2023-06-22T12:18:21;6.50;;;3.88;;
69542;SDS011;56762;49.494;11.768;2023-06-22T12:20:49;7.00;;;3.33;;
69542;SDS011;56762;49.494;11.768;2023-06-22T12:23:17;7.20;;;3.80;;
69542;SDS011;56762;49.494;11.768;2023-06-22T12:25:46;8.40;;;3.60;;
69542;SDS011;56762;49.494;11.768;2023-06-22T12:28:13;12.05;;;4.03;;
69542;SDS011;56762;49.494;11.768;2023-06-22T12:30:41;8.13;;;3.50;;
69542;SDS011;56762;49.494;11.768;2023-06-22T12:33:10;6.72;;;3.47;;
69542;SDS011;56762;49.494;11.768;2023-06-22T12:35:38;7.63;;;3.87;;
69542;SDS011;56762;49.494;11.768;2023-06-22T12:38:06;9.75;;;3.92;;
69542;SDS011;56762;49.494;11.768;2023-06-22T12:40:34;10.18;;;3.60;;
69542;SDS011;56762;49.494;11.768;2023-06-22T12:43:02;7.55;;;3.72;;
69542;SDS011;56762;49.494;11.768;2023-06-22T12:45:30;7.85;;;3.50;;
69542;SDS011;56762;49.494;11.768;2023-06-22T12:48:00;8.23;;;3.83;;
69542;SDS011;56762;49.494;11.768;2023-06-22T12:50:29;7.75;;;3.80;;
69542;SDS011;56762;49.494;11.768;2023-06-22T12:52:57;9.40;;;3.70;;
69542;SDS011;56762;49.494;11.768;2023-06-22T12:55:26;7.60;;;3.70;;
69542;SDS011;56762;49.494;11.768;2023-06-22T12:57:54;9.65;;;3.92;;
69542;SDS011;56762;49.494;11.768;2023-06-22T13:00:22;8.77;;;3.90;;
69542;SDS011;56762;49.494;11.768;2023-06-22T13:02:50;8.00;;;3.78;;
69542;SDS011;56762;49.494;11.768;2023-06-22T13:05:19;8.60;;;3.75;;
69542;SDS011;56762;49.494;11.768;2023-06-22T13:07:49;6.80;;;3.40;;
69542;SDS011;56762;49.494;11.768;2023-06-22T13:10:18;10.20;;;3.50;;
69542;SDS011;56762;49.494;11.768;2023-06-22T13:12:46;7.20;;;3.43;;
69542;SDS011;56762;49.494;11.768;2023-06-22T13:15:14;8.05;;;3.47;;
69542;SDS011;56762;49.494;11.768;2023-06-22T13:17:42;8.75;;;3.45;;
69542;SDS011;56762;49.494;11.768;2023-06-22T13:20:10;9.27;;;3.40;;
69542;SDS011;56762;49.494;11.768;2023-06-22T13:22:39;10.27;;;3.88;;
69542;SDS011;56762;49.494;11.768;2023-06-22T13:25:13;12.23;;;3.93;;
69542;SDS011;56762;49.494;11.768;2023-06-22T13:27:45;6.68;;;3.22;;
69542;SDS011;56762;49.494;11.768;2023-06-22T13:30:13;10.00;;;3.65;;
69542;SDS011;56762;49.494;11.768;2023-06-22T13:32:42;8.07;;;3.92;;
69542;SDS011;56762;49.494;11.768;2023-06-22T13:35:10;8.65;;;3.80;;
69542;SDS011;56762;49.494;11.768;2023-06-22T13:37:39;12.43;;;3.60;;
69542;SDS011;56762;49.494;11.768;2023-06-22T13:40:08;7.57;;;3.33;;
69542;SDS011;56762;49.494;11.768;2023-06-22T13:42:37;7.38;;;3.47;;
69542;SDS011;56762;49.494;11.768;2023-06-22T13:45:06;10.23;;;3.92;;
69542;SDS011;56762;49.494;11.768;2023-06-22T13:47:35;7.95;;;4.18;;
69542;SDS011;56762;49.494;11.768;2023-06-22T13:50:03;6.73;;;4.17;;
69542;SDS011;56762;49.494;11.768;2023-06-22T13:52:32;8.20;;;3.83;;
69542;SDS011;56762;49.494;11.768;2023-06-22T13:55:00;9.43;;;3.67;;
69542;SDS011;56762;49.494;11.768;2023-06-22T13:57:28;8.85;;;3.42;;
69542;SDS011;56762;49.494;11.768;2023-06-22T13:59:57;8.75;;;3.25;;
69542;SDS011;56762;49.494;11.768;2023-06-22T14:02:25;9.67;;;3.67;;
69542;SDS011;56762;49.494;11.768;2023-06-22T14:04:54;8.10;;;3.10;;
69542;SDS011;56762;49.494;11.768;2023-06-22T14:07:22;10.93;;;3.50;;
69542;SDS011;56762;49.494;11.768;2023-06-22T14:09:50;11.13;;;4.00;;
69542;SDS011;56762;49.494;11.768;2023-06-22T14:12:19;11.35;;;3.95;;
69542;SDS011;56762;49.494;11.768;2023-06-22T14:14:47;10.03;;;4.07;;
69542;SDS011;56762;49.494;11.768;2023-06-22T14:17:16;8.15;;;3.55;;
69542;SDS011;56762;49.494;11.768;2023-06-22T14:19:50;9.02;;;3.70;;
69542;SDS011;56762;49.494;11.768;2023-06-22T14:22:19;8.80;;;3.95;;
69542;SDS011;56762;49.494;11.768;2023-06-22T14:24:47;8.50;;;3.58;;
69542;SDS011;56762;49.494;11.768;2023-06-22T14:27:16;7.17;;;3.27;;
69542;SDS011;56762;49.494;11.768;2023-06-22T14:29:44;7.40;;;3.83;;
69542;SDS011;56762;49.494;11.768;2023-06-22T14:32:12;8.60;;;3.50;;
69542;SDS011;56762;49.494;11.768;2023-06-22T14:34:41;8.13;;;3.58;;
69542;SDS011;56762;49.494;11.768;2023-06-22T14:37:10;9.88;;;3.75;;
69542;SDS011;56762;49.494;11.768;2023-06-22T14:39:39;8.77;;;3.90;;
69542;SDS011;56762;49.494;11.768;2023-06-22T14:42:07;8.10;;;3.75;;